sensor_id;sensor_type;location;lat;lon;timestamp;pressure;altitude;pressure_sealevel;temperature;humidity
73501;BME280;61721;42.206;25.320;2023-12-20T00:01:55;99894.06;;;3.85;66.92
73501;BME280;61721;42.206;25.320;2023-12-20T00:04:22;99902.28;;;3.51;68.11
73501;BME280;61721;42.206;25.320;2023-12-20T00:06:49;99904.81;;;3.85;67.18
73501;BME280;61721;42.206;25.320;2023-12-20T00:09:18;99895.41;;;4.05;66.50
73501;BME280;61721;42.206;25.320;2023-12-20T00:11:45;99898.78;;;3.99;66.69
73501;BME280;61721;42.206;25.320;2023-12-20T00:14:14;99893.41;;;3.91;66.88
73501;BME280;61721;42.206;25.320;2023-12-20T00:16:41;99894.56;;;4.37;65.91
73501;BME280;61721;42.206;25.320;2023-12-20T00:19:09;99894.59;;;4.21;65.89
73501;BME280;61721;42.206;25.320;2023-12-20T00:21:36;99897.28;;;4.21;66.13
73501;BME280;61721;42.206;25.320;2023-12-20T00:24:04;99890.03;;;3.89;67.04
73501;BME280;61721;42.206;25.320;2023-12-20T00:26:32;99884.66;;;3.89;67.28
73501;BME280;61721;42.206;25.320;2023-12-20T00:29:00;99876.25;;;3.84;67.63
73501;BME280;61721;42.206;25.320;2023-12-20T00:31:29;99885.81;;;3.70;67.83
73501;BME280;61721;42.206;25.320;2023-12-20T00:33:56;99875.53;;;3.50;67.98
73501;BME280;61721;42.206;25.320;2023-12-20T00:36:23;99873.38;;;3.53;67.75
73501;BME280;61721;42.206;25.320;2023-12-20T00:38:51;99874.91;;;3.64;67.81
73501;BME280;61721;42.206;25.320;2023-12-20T00:41:18;99866.16;;;3.62;67.79
73501;BME280;61721;42.206;25.320;2023-12-20T00:43:46;99854.88;;;3.58;68.06
73501;BME280;61721;42.206;25.320;2023-12-20T00:46:13;99862.81;;;3.84;67.17
73501;BME280;61721;42.206;25.320;2023-12-20T00:48:42;99860.28;;;3.75;67.62
73501;BME280;61721;42.206;25.320;2023-12-20T00:51:11;99854.38;;;3.87;67.42
73501;BME280;61721;42.206;25.320;2023-12-20T00:53:38;99848.66;;;4.06;66.77
73501;BME280;61721;42.206;25.320;2023-12-20T00:56:06;99855.03;;;3.97;67.08
73501;BME280;61721;42.206;25.320;2023-12-20T00:58:34;99849.31;;;3.52;68.66
73501;BME280;61721;42.206;25.320;2023-12-20T01:01:01;99851.34;;;3.66;68.79
73501;BME280;61721;42.206;25.320;2023-12-20T01:03:28;99847.50;;;3.93;67.96
73501;BME280;61721;42.206;25.320;2023-12-20T01:05:57;99851.69;;;4.03;68.37
73501;BME280;61721;42.206;25.320;2023-12-20T01:08:24;99850.63;;;3.23;69.76
73501;BME280;61721;42.206;25.320;2023-12-20T01:10:52;99859.16;;;3.19;70.15
73501;BME280;61721;42.206;25.320;2023-12-20T01:13:19;99854.56;;;2.95;70.63
73501;BME280;61721;42.206;25.320;2023-12-20T01:15:45;99848.84;;;2.98;70.84
73501;BME280;61721;42.206;25.320;2023-12-20T01:18:13;99844.09;;;3.42;69.58
73501;BME280;61721;42.206;25.320;2023-12-20T01:20:41;99842.94;;;3.61;68.31
73501;BME280;61721;42.206;25.320;2023-12-20T01:23:10;99836.56;;;3.70;67.67
73501;BME280;61721;42.206;25.320;2023-12-20T01:25:37;99826.63;;;3.62;68.23
73501;BME280;61721;42.206;25.320;2023-12-20T01:28:05;99829.16;;;3.64;67.60
73501;BME280;61721;42.206;25.320;2023-12-20T01:30:32;99828.47;;;3.62;67.75
73501;BME280;61721;42.206;25.320;2023-12-20T01:33:00;99831.84;;;3.64;67.69
73501;BME280;61721;42.206;25.320;2023-12-20T01:35:28;99822.22;;;3.29;68.52
73501;BME280;61721;42.206;25.320;2023-12-20T01:37:55;99821.56;;;3.67;67.54
73501;BME280;61721;42.206;25.320;2023-12-20T01:40:25;99811.34;;;3.63;67.29
73501;BME280;61721;42.206;25.320;2023-12-20T01:42:58;99816.38;;;3.58;67.08
73501;BME280;61721;42.206;25.320;2023-12-20T01:45:26;99805.59;;;3.58;67.19
73501;BME280;61721;42.206;25.320;2023-12-20T01:47:54;99803.72;;;3.18;68.59
73501;BME280;61721;42.206;25.320;2023-12-20T01:50:22;99803.69;;;3.10;69.03
73501;BME280;61721;42.206;25.320;2023-12-20T01:52:50;99794.16;;;3.31;68.07
73501;BME280;61721;42.206;25.320;2023-12-20T01:55:21;99795.53;;;3.52;67.09
73501;BME280;61721;42.206;25.320;2023-12-20T01:57:50;99786.78;;;3.42;67.34
73501;BME280;61721;42.206;25.320;2023-12-20T02:00:18;99790.16;;;3.44;67.46
73501;BME280;61721;42.206;25.320;2023-12-20T02:02:50;99784.78;;;3.44;67.28
73501;BME280;61721;42.206;25.320;2023-12-20T02:05:18;99778.38;;;3.45;67.08
73501;BME280;61721;42.206;25.320;2023-12-20T02:07:45;99777.19;;;3.31;67.45
73501;BME280;61721;42.206;25.320;2023-12-20T02:10:12;99767.28;;;3.15;68.16
73501;BME280;61721;42.206;25.320;2023-12-20T02:12:40;99774.66;;;3.29;68.01
73501;BME280;61721;42.206;25.320;2023-12-20T02:15:09;99768.63;;;3.35;67.71
73501;BME280;61721;42.206;25.320;2023-12-20T02:17:38;99775.03;;;3.34;67.92
73501;BME280;61721;42.206;25.320;2023-12-20T02:20:07;99766.59;;;3.21;68.24
73501;BME280;61721;42.206;25.320;2023-12-20T02:22:36;99769.28;;;3.29;68.11
73501;BME280;61721;42.206;25.320;2023-12-20T02:25:04;99765.44;;;3.32;68.04
73501;BME280;61721;42.206;25.320;2023-12-20T02:27:32;99758.38;;;3.23;68.13
73501;BME280;61721;42.206;25.320;2023-12-20T02:29:59;99762.22;;;3.28;67.98
73501;BME280;61721;42.206;25.320;2023-12-20T02:32:27;99756.00;;;3.12;68.16
73501;BME280;61721;42.206;25.320;2023-12-20T02:34:55;99751.81;;;3.25;68.26
73501;BME280;61721;42.206;25.320;2023-12-20T02:37:22;99753.16;;;3.13;68.06
73501;BME280;61721;42.206;25.320;2023-12-20T02:39:51;99759.81;;;2.85;69.08
73501;BME280;61721;42.206;25.320;2023-12-20T02:42:19;99754.84;;;3.06;68.32
73501;BME280;61721;42.206;25.320;2023-12-20T02:44:46;99743.72;;;3.01;68.04
73501;BME280;61721;42.206;25.320;2023-12-20T02:47:13;99752.94;;;2.90;68.12
73501;BME280;61721;42.206;25.320;2023-12-20T02:49:41;99737.66;;;2.83;68.54
73501;BME280;61721;42.206;25.320;2023-12-20T02:52:08;99743.38;;;2.88;68.88
73501;BME280;61721;42.206;25.320;2023-12-20T02:54:36;99736.00;;;3.06;68.35
73501;BME280;61721;42.206;25.320;2023-12-20T02:57:05;99737.72;;;3.15;67.83
73501;BME280;61721;42.206;25.320;2023-12-20T02:59:33;99738.03;;;3.20;67.39
73501;BME280;61721;42.206;25.320;2023-12-20T03:02:00;99740.56;;;3.06;67.80
73501;BME280;61721;42.206;25.320;2023-12-20T03:04:27;99737.19;;;2.95;68.15
73501;BME280;61721;42.206;25.320;2023-12-20T03:06:55;99737.34;;;3.18;67.67
73501;BME280;61721;42.206;25.320;2023-12-20T03:09:22;99723.53;;;2.81;68.84
73501;BME280;61721;42.206;25.320;2023-12-20T03:11:50;99731.59;;;2.81;69.22
73501;BME280;61721;42.206;25.320;2023-12-20T03:14:19;99723.19;;;2.76;69.17
73501;BME280;61721;42.206;25.320;2023-12-20T03:16:47;99724.59;;;2.96;68.59
73501;BME280;61721;42.206;25.320;2023-12-20T03:19:17;99725.09;;;3.16;67.86
73501;BME280;61721;42.206;25.320;2023-12-20T03:21:44;99722.56;;;3.22;67.51
73501;BME280;61721;42.206;25.320;2023-12-20T03:24:12;99720.41;;;3.26;67.63
73501;BME280;61721;42.206;25.320;2023-12-20T03:26:39;99707.09;;;2.92;69.06
73501;BME280;61721;42.206;25.320;2023-12-20T03:29:07;99706.72;;;2.79;69.12
73501;BME280;61721;42.206;25.320;2023-12-20T03:31:36;99694.97;;;2.72;69.36
73501;BME280;61721;42.206;25.320;2023-12-20T03:34:03;99692.97;;;2.90;68.88
73501;BME280;61721;42.206;25.320;2023-12-20T03:36:31;99682.59;;;2.87;68.98
73501;BME280;61721;42.206;25.320;2023-12-20T03:38:58;99692.34;;;2.96;68.58
73501;BME280;61721;42.206;25.320;2023-12-20T03:41:26;99683.91;;;2.83;68.75
73501;BME280;61721;42.206;25.320;2023-12-20T03:44:00;99689.59;;;2.72;69.00
73501;BME280;61721;42.206;25.320;2023-12-20T03:46:28;99682.91;;;2.84;68.99
73501;BME280;61721;42.206;25.320;2023-12-20T03:48:57;99678.91;;;3.04;68.02
73501;BME280;61721;42.206;25.320;2023-12-20T03:51:24;99687.81;;;3.05;67.86
73501;BME280;61721;42.206;25.320;2023-12-20T03:53:51;99684.94;;;3.14;67.59
73501;BME280;61721;42.206;25.320;2023-12-20T03:56:19;99682.94;;;3.16;67.54
73501;BME280;61721;42.206;25.320;2023-12-20T03:58:46;99685.59;;;3.08;67.77
73501;BME280;61721;42.206;25.320;2023-12-20T04:01:14;99680.72;;;2.79;68.65
73501;BME280;61721;42.206;25.320;2023-12-20T04:03:41;99682.22;;;2.90;68.87
73501;BME280;61721;42.206;25.320;2023-12-20T04:06:10;99681.75;;;2.86;68.94
73501;BME280;61721;42.206;25.320;2023-12-20T04:08:37;99684.28;;;2.96;68.49
73501;BME280;61721;42.206;25.320;2023-12-20T04:11:05;99677.38;;;3.10;68.06
73501;BME280;61721;42.206;25.320;2023-12-20T04:13:32;99675.38;;;3.36;67.23
73501;BME280;61721;42.206;25.320;2023-12-20T04:16:00;99687.94;;;3.27;67.00
73501;BME280;61721;42.206;25.320;2023-12-20T04:18:27;99680.84;;;3.67;65.92
73501;BME280;61721;42.206;25.320;2023-12-20T04:20:54;99676.84;;;3.39;65.76
73501;BME280;61721;42.206;25.320;2023-12-20T04:23:23;99676.53;;;3.09;66.55
73501;BME280;61721;42.206;25.320;2023-12-20T04:25:51;99683.06;;;2.98;66.62
73501;BME280;61721;42.206;25.320;2023-12-20T04:28:18;99686.88;;;2.47;68.12
73501;BME280;61721;42.206;25.320;2023-12-20T04:30:46;99690.59;;;2.63;67.93
73501;BME280;61721;42.206;25.320;2023-12-20T04:33:13;99684.94;;;2.23;69.29
73501;BME280;61721;42.206;25.320;2023-12-20T04:35:41;99681.59;;;2.96;67.40
73501;BME280;61721;42.206;25.320;2023-12-20T04:38:08;99680.22;;;2.76;67.28
73501;BME280;61721;42.206;25.320;2023-12-20T04:40:37;99672.31;;;2.58;67.84
73501;BME280;61721;42.206;25.320;2023-12-20T04:43:06;99667.94;;;2.65;67.52
73501;BME280;61721;42.206;25.320;2023-12-20T04:45:34;99672.75;;;2.37;68.29
73501;BME280;61721;42.206;25.320;2023-12-20T04:48:02;99670.28;;;2.60;68.26
73501;BME280;61721;42.206;25.320;2023-12-20T04:50:30;99677.53;;;2.76;67.12
73501;BME280;61721;42.206;25.320;2023-12-20T04:53:01;99678.19;;;2.70;67.30
73501;BME280;61721;42.206;25.320;2023-12-20T04:55:28;99676.00;;;2.57;67.82
73501;BME280;61721;42.206;25.320;2023-12-20T04:57:57;99666.09;;;2.57;67.84
73501;BME280;61721;42.206;25.320;2023-12-20T05:00:25;99667.25;;;2.55;67.88
73501;BME280;61721;42.206;25.320;2023-12-20T05:02:52;99659.03;;;2.65;67.21
73501;BME280;61721;42.206;25.320;2023-12-20T05:05:20;99654.81;;;2.54;67.23
73501;BME280;61721;42.206;25.320;2023-12-20T05:07:47;99656.72;;;2.78;67.18
73501;BME280;61721;42.206;25.320;2023-12-20T05:10:15;99660.41;;;2.85;66.80
73501;BME280;61721;42.206;25.320;2023-12-20T05:12:42;99658.56;;;2.85;66.36
73501;BME280;61721;42.206;25.320;2023-12-20T05:15:11;99655.88;;;2.85;65.96
73501;BME280;61721;42.206;25.320;2023-12-20T05:17:39;99654.38;;;2.91;66.02
73501;BME280;61721;42.206;25.320;2023-12-20T05:20:07;99644.81;;;2.96;66.03
73501;BME280;61721;42.206;25.320;2023-12-20T05:22:35;99637.56;;;2.81;66.05
73501;BME280;61721;42.206;25.320;2023-12-20T05:25:03;99632.50;;;2.61;66.69
73501;BME280;61721;42.206;25.320;2023-12-20T05:27:30;99629.66;;;2.55;67.05
73501;BME280;61721;42.206;25.320;2023-12-20T05:29:58;99626.81;;;2.73;66.72
73501;BME280;61721;42.206;25.320;2023-12-20T05:32:26;99618.06;;;2.63;66.85
73501;BME280;61721;42.206;25.320;2023-12-20T05:34:54;99629.34;;;2.90;66.51
73501;BME280;61721;42.206;25.320;2023-12-20T05:37:21;99620.97;;;2.77;66.27
73501;BME280;61721;42.206;25.320;2023-12-20T05:39:49;99617.06;;;2.80;66.23
73501;BME280;61721;42.206;25.320;2023-12-20T05:42:16;99618.25;;;3.02;66.32
73501;BME280;61721;42.206;25.320;2023-12-20T05:44:44;99615.91;;;3.15;65.48
73501;BME280;61721;42.206;25.320;2023-12-20T05:47:11;99616.09;;;3.05;65.44
73501;BME280;61721;42.206;25.320;2023-12-20T05:49:40;99602.63;;;2.40;66.92
73501;BME280;61721;42.206;25.320;2023-12-20T05:52:07;99606.22;;;1.99;68.70
73501;BME280;61721;42.206;25.320;2023-12-20T05:54:35;99614.16;;;1.74;69.78
73501;BME280;61721;42.206;25.320;2023-12-20T05:57:02;99606.84;;;1.93;68.44
73501;BME280;61721;42.206;25.320;2023-12-20T05:59:37;99611.69;;;1.47;70.86
73501;BME280;61721;42.206;25.320;2023-12-20T06:02:05;99607.50;;;1.86;69.40
73501;BME280;61721;42.206;25.320;2023-12-20T06:04:32;99599.81;;;1.92;69.49
73501;BME280;61721;42.206;25.320;2023-12-20T06:07:02;99606.22;;;1.99;69.36
73501;BME280;61721;42.206;25.320;2023-12-20T06:09:30;99601.47;;;1.93;69.39
73501;BME280;61721;42.206;25.320;2023-12-20T06:11:57;99596.19;;;2.09;68.88
73501;BME280;61721;42.206;25.320;2023-12-20T06:14:25;99591.66;;;2.09;69.14
73501;BME280;61721;42.206;25.320;2023-12-20T06:16:52;99597.22;;;2.32;68.92
73501;BME280;61721;42.206;25.320;2023-12-20T06:19:20;99597.38;;;2.22;68.60
73501;BME280;61721;42.206;25.320;2023-12-20T06:21:47;99609.72;;;1.57;70.93
73501;BME280;61721;42.206;25.320;2023-12-20T06:24:16;99614.72;;;1.26;71.58
73501;BME280;61721;42.206;25.320;2023-12-20T06:26:43;99616.13;;;1.04;72.00
73501;BME280;61721;42.206;25.320;2023-12-20T06:29:11;99605.69;;;1.01;71.95
73501;BME280;61721;42.206;25.320;2023-12-20T06:31:39;99606.47;;;1.45;70.86
73501;BME280;61721;42.206;25.320;2023-12-20T06:34:06;99592.44;;;1.94;70.04
73501;BME280;61721;42.206;25.320;2023-12-20T06:36:34;99596.03;;;2.18;68.51
73501;BME280;61721;42.206;25.320;2023-12-20T06:39:01;99599.47;;;1.95;69.00
73501;BME280;61721;42.206;25.320;2023-12-20T06:41:32;99604.53;;;1.98;69.15
73501;BME280;61721;42.206;25.320;2023-12-20T06:43:59;99592.38;;;1.77;69.88
73501;BME280;61721;42.206;25.320;2023-12-20T06:46:26;99593.53;;;2.33;68.86
73501;BME280;61721;42.206;25.320;2023-12-20T06:48:54;99587.34;;;2.81;67.59
73501;BME280;61721;42.206;25.320;2023-12-20T06:51:21;99594.53;;;3.21;66.46
73501;BME280;61721;42.206;25.320;2023-12-20T06:53:51;99596.25;;;2.74;67.33
73501;BME280;61721;42.206;25.320;2023-12-20T06:56:18;99604.31;;;2.98;66.63
73501;BME280;61721;42.206;25.320;2023-12-20T06:58:47;99599.28;;;2.71;67.77
73501;BME280;61721;42.206;25.320;2023-12-20T07:01:15;99601.47;;;2.67;68.93
73501;BME280;61721;42.206;25.320;2023-12-20T07:03:50;99596.84;;;3.41;66.79
73501;BME280;61721;42.206;25.320;2023-12-20T07:06:25;99592.41;;;3.72;66.09
73501;BME280;61721;42.206;25.320;2023-12-20T07:08:52;99594.47;;;3.54;65.88
73501;BME280;61721;42.206;25.320;2023-12-20T07:11:20;99602.28;;;3.00;67.60
73501;BME280;61721;42.206;25.320;2023-12-20T07:13:49;99607.97;;;3.85;65.84
73501;BME280;61721;42.206;25.320;2023-12-20T07:16:16;99600.44;;;3.80;66.07
73501;BME280;61721;42.206;25.320;2023-12-20T07:18:44;99603.13;;;3.80;66.31
73501;BME280;61721;42.206;25.320;2023-12-20T07:21:11;99603.75;;;3.43;66.99
73501;BME280;61721;42.206;25.320;2023-12-20T07:23:38;99604.34;;;4.08;66.52
73501;BME280;61721;42.206;25.320;2023-12-20T07:26:06;99592.66;;;3.85;66.15
73501;BME280;61721;42.206;25.320;2023-12-20T07:28:33;99590.47;;;4.20;65.68
73501;BME280;61721;42.206;25.320;2023-12-20T07:31:03;99586.94;;;4.50;64.40
73501;BME280;61721;42.206;25.320;2023-12-20T07:33:30;99579.72;;;4.65;64.26
73501;BME280;61721;42.206;25.320;2023-12-20T07:35:59;99581.25;;;4.82;64.08
73501;BME280;61721;42.206;25.320;2023-12-20T07:38:26;99585.50;;;5.37;62.64
73501;BME280;61721;42.206;25.320;2023-12-20T07:40:54;99569.88;;;5.47;62.53
73501;BME280;61721;42.206;25.320;2023-12-20T07:43:26;99568.19;;;5.46;62.66
73501;BME280;61721;42.206;25.320;2023-12-20T07:45:54;99559.06;;;5.47;63.11
73501;BME280;61721;42.206;25.320;2023-12-20T07:48:23;99550.50;;;5.73;62.89
73501;BME280;61721;42.206;25.320;2023-12-20T07:50:50;99554.00;;;6.03;62.70
73501;BME280;61721;42.206;25.320;2023-12-20T07:53:18;99545.78;;;6.11;61.90
73501;BME280;61721;42.206;25.320;2023-12-20T07:55:46;99542.97;;;6.19;61.51
73501;BME280;61721;42.206;25.320;2023-12-20T07:58:13;99536.47;;;6.35;61.04
73501;BME280;61721;42.206;25.320;2023-12-20T08:00:41;99544.16;;;6.53;60.77
73501;BME280;61721;42.206;25.320;2023-12-20T08:03:08;99548.06;;;5.93;62.23
73501;BME280;61721;42.206;25.320;2023-12-20T08:05:39;99546.97;;;6.45;61.39
73501;BME280;61721;42.206;25.320;2023-12-20T08:08:06;99547.34;;;6.20;62.25
73501;BME280;61721;42.206;25.320;2023-12-20T08:10:34;99543.34;;;6.16;63.49
73501;BME280;61721;42.206;25.320;2023-12-20T08:13:02;99543.94;;;5.97;63.98
73501;BME280;61721;42.206;25.320;2023-12-20T08:15:29;99550.25;;;6.40;63.01
73501;BME280;61721;42.206;25.320;2023-12-20T08:17:57;99547.78;;;6.03;64.46
73501;BME280;61721;42.206;25.320;2023-12-20T08:20:24;99553.00;;;5.89;65.14
73501;BME280;61721;42.206;25.320;2023-12-20T08:22:53;99550.72;;;6.22;63.96
73501;BME280;61721;42.206;25.320;2023-12-20T08:25:20;99547.69;;;5.08;67.05
73501;BME280;61721;42.206;25.320;2023-12-20T08:27:50;99548.75;;;5.66;66.16
73501;BME280;61721;42.206;25.320;2023-12-20T08:30:17;99537.28;;;5.93;64.78
73501;BME280;61721;42.206;25.320;2023-12-20T08:32:47;99528.22;;;6.01;64.21
73501;BME280;61721;42.206;25.320;2023-12-20T08:35:15;99524.31;;;6.46;62.14
73501;BME280;61721;42.206;25.320;2023-12-20T08:37:43;99518.94;;;6.24;63.44
73501;BME280;61721;42.206;25.320;2023-12-20T08:40:12;99514.59;;;6.09;63.47
73501;BME280;61721;42.206;25.320;2023-12-20T08:42:40;99515.56;;;6.65;63.24
73501;BME280;61721;42.206;25.320;2023-12-20T08:45:08;99513.50;;;7.23;60.26
73501;BME280;61721;42.206;25.320;2023-12-20T08:47:36;99514.53;;;6.66;61.97
73501;BME280;61721;42.206;25.320;2023-12-20T08:50:04;99512.63;;;6.60;61.47
73501;BME280;61721;42.206;25.320;2023-12-20T08:52:32;99508.03;;;7.10;60.93
73501;BME280;61721;42.206;25.320;2023-12-20T08:54:59;99498.22;;;6.31;63.17
73501;BME280;61721;42.206;25.320;2023-12-20T08:57:28;99490.75;;;7.45;61.40
73501;BME280;61721;42.206;25.320;2023-12-20T08:59:57;99488.16;;;6.25;62.87
73501;BME280;61721;42.206;25.320;2023-12-20T09:02:25;99487.38;;;5.74;64.75
73501;BME280;61721;42.206;25.320;2023-12-20T09:04:52;99488.78;;;6.06;63.91
73501;BME280;61721;42.206;25.320;2023-12-20T09:07:23;99482.63;;;6.55;62.41
73501;BME280;61721;42.206;25.320;2023-12-20T09:09:51;99475.06;;;6.22;63.79
73501;BME280;61721;42.206;25.320;2023-12-20T09:12:19;99473.84;;;6.74;63.03
73501;BME280;61721;42.206;25.320;2023-12-20T09:14:47;99469.00;;;6.63;63.62
73501;BME280;61721;42.206;25.320;2023-12-20T09:17:16;99454.34;;;7.13;61.56
73501;BME280;61721;42.206;25.320;2023-12-20T09:19:44;99436.97;;;7.76;59.66
73501;BME280;61721;42.206;25.320;2023-12-20T09:22:12;99427.53;;;7.59;60.43
73501;BME280;61721;42.206;25.320;2023-12-20T09:24:40;99420.41;;;6.76;61.56
73501;BME280;61721;42.206;25.320;2023-12-20T09:27:08;99426.72;;;7.65;60.41
73501;BME280;61721;42.206;25.320;2023-12-20T09:29:36;99420.91;;;7.81;59.31
73501;BME280;61721;42.206;25.320;2023-12-20T09:32:05;99418.28;;;6.99;61.89
73501;BME280;61721;42.206;25.320;2023-12-20T09:34:33;99405.41;;;7.49;61.48
73501;BME280;61721;42.206;25.320;2023-12-20T09:37:00;99407.13;;;7.63;60.70
73501;BME280;61721;42.206;25.320;2023-12-20T09:39:28;99398.94;;;7.43;61.32
73501;BME280;61721;42.206;25.320;2023-12-20T09:42:01;99399.09;;;7.29;62.80
73501;BME280;61721;42.206;25.320;2023-12-20T09:44:29;99397.25;;;7.36;62.02
73501;BME280;61721;42.206;25.320;2023-12-20T09:46:57;99389.88;;;7.17;63.47
73501;BME280;61721;42.206;25.320;2023-12-20T09:49:27;99383.88;;;7.28;63.44
73501;BME280;61721;42.206;25.320;2023-12-20T09:51:55;99383.50;;;6.90;64.41
73501;BME280;61721;42.206;25.320;2023-12-20T09:54:24;99378.50;;;7.41;63.97
73501;BME280;61721;42.206;25.320;2023-12-20T09:56:52;99377.88;;;8.39;60.67
73501;BME280;61721;42.206;25.320;2023-12-20T09:59:20;99365.88;;;9.13;59.74
73501;BME280;61721;42.206;25.320;2023-12-20T10:01:48;99363.19;;;9.51;57.55
73501;BME280;61721;42.206;25.320;2023-12-20T10:04:16;99359.66;;;10.13;56.08
73501;BME280;61721;42.206;25.320;2023-12-20T10:06:45;99354.19;;;10.88;55.12
73501;BME280;61721;42.206;25.320;2023-12-20T10:09:13;99360.13;;;12.87;50.10
73501;BME280;61721;42.206;25.320;2023-12-20T10:11:40;99344.50;;;11.28;52.68
73501;BME280;61721;42.206;25.320;2023-12-20T10:14:11;99352.78;;;12.11;51.22
73501;BME280;61721;42.206;25.320;2023-12-20T10:16:38;99343.22;;;12.90;50.04
73501;BME280;61721;42.206;25.320;2023-12-20T10:19:05;99342.63;;;12.42;49.95
73501;BME280;61721;42.206;25.320;2023-12-20T10:21:33;99338.34;;;14.29;47.18
73501;BME280;61721;42.206;25.320;2023-12-20T10:24:02;99334.09;;;12.96;49.31
73501;BME280;61721;42.206;25.320;2023-12-20T10:26:30;99332.78;;;12.17;51.37
73501;BME280;61721;42.206;25.320;2023-12-20T10:29:01;99321.81;;;13.62;50.49
73501;BME280;61721;42.206;25.320;2023-12-20T10:31:30;99318.28;;;13.22;50.15
73501;BME280;61721;42.206;25.320;2023-12-20T10:33:58;99308.50;;;14.11;47.83
73501;BME280;61721;42.206;25.320;2023-12-20T10:36:28;99312.66;;;13.85;48.13
73501;BME280;61721;42.206;25.320;2023-12-20T10:38:56;99308.19;;;14.96;45.45
73501;BME280;61721;42.206;25.320;2023-12-20T10:41:27;99303.72;;;15.34;44.94
73501;BME280;61721;42.206;25.320;2023-12-20T10:43:56;99300.19;;;15.38;45.78
73501;BME280;61721;42.206;25.320;2023-12-20T10:46:26;99290.75;;;15.73;43.66
73501;BME280;61721;42.206;25.320;2023-12-20T10:48:56;99290.31;;;14.05;46.91
73501;BME280;61721;42.206;25.320;2023-12-20T10:51:24;99293.63;;;14.07;47.79
73501;BME280;61721;42.206;25.320;2023-12-20T10:53:55;99292.97;;;14.67;44.77
73501;BME280;61721;42.206;25.320;2023-12-20T10:56:23;99281.75;;;16.78;42.52
73501;BME280;61721;42.206;25.320;2023-12-20T10:58:52;99276.56;;;17.49;40.86
73501;BME280;61721;42.206;25.320;2023-12-20T11:01:19;99266.47;;;17.70;40.29
73501;BME280;61721;42.206;25.320;2023-12-20T11:03:49;99263.69;;;18.86;38.25
73501;BME280;61721;42.206;25.320;2023-12-20T11:06:29;99258.03;;;19.27;36.92
73501;BME280;61721;42.206;25.320;2023-12-20T11:09:10;99257.41;;;18.10;38.25
73501;BME280;61721;42.206;25.320;2023-12-20T11:11:56;99255.63;;;19.70;36.24
73501;BME280;61721;42.206;25.320;2023-12-20T11:14:33;99254.25;;;20.06;36.01
73501;BME280;61721;42.206;25.320;2023-12-20T11:17:09;99249.66;;;19.42;36.58
73501;BME280;61721;42.206;25.320;2023-12-20T11:19:38;99248.22;;;20.33;35.59
73501;BME280;61721;42.206;25.320;2023-12-20T11:22:10;99248.94;;;19.76;35.26
73501;BME280;61721;42.206;25.320;2023-12-20T11:24:44;99244.06;;;19.62;35.93
73501;BME280;61721;42.206;25.320;2023-12-20T11:27:13;99225.47;;;19.24;36.11
73501;BME280;61721;42.206;25.320;2023-12-20T11:29:42;99220.63;;;19.99;35.59
73501;BME280;61721;42.206;25.320;2023-12-20T11:32:33;99225.78;;;20.40;35.10
73501;BME280;61721;42.206;25.320;2023-12-20T11:35:17;99216.97;;;19.70;36.12
73501;BME280;61721;42.206;25.320;2023-12-20T11:37:46;99215.25;;;20.47;33.98
73501;BME280;61721;42.206;25.320;2023-12-20T11:40:15;99211.38;;;19.80;34.35
73501;BME280;61721;42.206;25.320;2023-12-20T11:42:49;99211.59;;;19.49;35.36
73501;BME280;61721;42.206;25.320;2023-12-20T11:45:18;99200.31;;;18.76;36.74
73501;BME280;61721;42.206;25.320;2023-12-20T11:47:48;99198.34;;;18.92;36.51
73501;BME280;61721;42.206;25.320;2023-12-20T11:50:17;99189.16;;;19.07;36.08
73501;BME280;61721;42.206;25.320;2023-12-20T11:52:44;99188.00;;;18.28;38.84
73501;BME280;61721;42.206;25.320;2023-12-20T11:55:12;99181.63;;;17.31;40.31
73501;BME280;61721;42.206;25.320;2023-12-20T11:57:40;99181.72;;;18.12;39.99
73501;BME280;61721;42.206;25.320;2023-12-20T12:00:09;99174.41;;;16.06;42.32
73501;BME280;61721;42.206;25.320;2023-12-20T12:02:38;99177.84;;;17.58;42.02
73501;BME280;61721;42.206;25.320;2023-12-20T12:05:07;99161.88;;;18.21;41.05
73501;BME280;61721;42.206;25.320;2023-12-20T12:07:35;99159.28;;;18.70;39.55
73501;BME280;61721;42.206;25.320;2023-12-20T12:10:03;99145.91;;;18.07;40.85
73501;BME280;61721;42.206;25.320;2023-12-20T12:12:30;99153.41;;;19.80;37.46
73501;BME280;61721;42.206;25.320;2023-12-20T12:14:58;99147.03;;;18.06;39.87
73501;BME280;61721;42.206;25.320;2023-12-20T12:17:26;99133.72;;;17.02;41.93
73501;BME280;61721;42.206;25.320;2023-12-20T12:20:02;99139.84;;;17.29;41.63
73501;BME280;61721;42.206;25.320;2023-12-20T12:22:31;99129.66;;;17.60;41.08
73501;BME280;61721;42.206;25.320;2023-12-20T12:24:59;99131.03;;;18.24;39.68
73501;BME280;61721;42.206;25.320;2023-12-20T12:27:36;99133.78;;;17.42;40.26
73501;BME280;61721;42.206;25.320;2023-12-20T12:30:05;99129.97;;;17.49;41.22
73501;BME280;61721;42.206;25.320;2023-12-20T12:32:34;99128.03;;;17.49;40.97
73501;BME280;61721;42.206;25.320;2023-12-20T12:35:04;99123.06;;;17.51;41.57
73501;BME280;61721;42.206;25.320;2023-12-20T12:37:34;99127.19;;;17.18;42.25
73501;BME280;61721;42.206;25.320;2023-12-20T12:40:03;99129.25;;;16.76;43.53
73501;BME280;61721;42.206;25.320;2023-12-20T12:42:31;99116.59;;;15.75;45.35
73501;BME280;61721;42.206;25.320;2023-12-20T12:44:59;99112.88;;;15.54;46.00
73501;BME280;61721;42.206;25.320;2023-12-20T12:47:26;99104.41;;;15.02;46.57
73501;BME280;61721;42.206;25.320;2023-12-20T12:49:55;99089.84;;;15.98;45.85
73501;BME280;61721;42.206;25.320;2023-12-20T12:52:25;99090.03;;;16.28;44.93
73501;BME280;61721;42.206;25.320;2023-12-20T12:54:53;99085.63;;;16.22;44.99
73501;BME280;61721;42.206;25.320;2023-12-20T12:57:21;99082.66;;;15.86;45.42
73501;BME280;61721;42.206;25.320;2023-12-20T12:59:51;99095.34;;;15.98;45.70
73501;BME280;61721;42.206;25.320;2023-12-20T13:02:47;99095.69;;;15.64;45.93
73501;BME280;61721;42.206;25.320;2023-12-20T13:05:14;99109.28;;;14.95;47.64